createdAt,value
2018-08-19T00:02:05.047Z,13.23
2018-08-19T00:04:38.906Z,12.87
2018-08-19T00:07:11.325Z,12.83
2018-08-19T00:09:43.734Z,13.20
2018-08-19T00:12:17.311Z,14.30
2018-08-19T00:14:49.778Z,11.90
2018-08-19T00:17:22.689Z,13.10
2018-08-19T00:19:55.306Z,12.87
2018-08-19T00:22:28.134Z,12.33
2018-08-19T00:25:00.746Z,13.03
2018-08-19T00:27:33.776Z,12.40
2018-08-19T00:30:07.458Z,12.20
2018-08-19T00:32:39.884Z,12.07
2018-08-19T00:35:13.474Z,12.80
2018-08-19T00:37:45.804Z,13.10
2018-08-19T00:40:18.185Z,12.40
2018-08-19T00:42:50.669Z,13.10
2018-08-19T00:45:23.303Z,13.10
2018-08-19T00:47:55.856Z,12.83
2018-08-19T00:50:28.190Z,13.20
2018-08-19T00:53:00.415Z,13.07
2018-08-19T00:55:40.695Z,13.50
2018-08-19T00:58:27.510Z,14.37
2018-08-19T01:00:59.820Z,13.80
2018-08-19T01:03:34.703Z,15.10
2018-08-19T01:06:06.867Z,13.10
2018-08-19T01:08:39.649Z,14.03
2018-08-19T01:11:20.119Z,13.83
2018-08-19T01:13:52.494Z,13.17
2018-08-19T01:16:25.350Z,15.10
2018-08-19T01:19:01.424Z,13.80
2018-08-19T01:21:34.729Z,13.37
2018-08-19T01:24:10.660Z,12.80
2018-08-19T01:26:43.699Z,13.13
2018-08-19T01:29:16.907Z,13.67
2018-08-19T01:31:50.111Z,13.10
2018-08-19T01:34:22.747Z,13.53
2018-08-19T01:36:55.402Z,14.20
2018-08-19T01:39:27.873Z,13.83
2018-08-19T01:42:00.111Z,12.33
2018-08-19T01:44:32.942Z,13.30
2018-08-19T01:47:05.306Z,13.63
2018-08-19T01:49:38.292Z,14.10
2018-08-19T01:52:11.067Z,13.97
2018-08-19T01:54:43.886Z,14.63
2018-08-19T01:57:16.615Z,13.73
2018-08-19T01:59:49.023Z,14.77
2018-08-19T02:02:21.609Z,15.10
2018-08-19T02:04:56.697Z,16.23
2018-08-19T02:07:31.210Z,14.50
2018-08-19T02:10:05.413Z,15.73
2018-08-19T02:12:39.087Z,15.57
2018-08-19T02:15:12.015Z,16.07
2018-08-19T02:18:01.123Z,14.53
2018-08-19T02:20:36.056Z,15.07
2018-08-19T02:23:10.099Z,15.50
2018-08-19T02:25:45.964Z,15.47
2018-08-19T02:28:23.139Z,15.77
2018-08-19T02:31:02.160Z,15.70
2018-08-19T02:33:36.611Z,16.60
2018-08-19T02:36:09.488Z,17.43
2018-08-19T02:38:41.779Z,16.80
2018-08-19T02:41:14.710Z,15.47
2018-08-19T02:43:51.736Z,15.47
2018-08-19T02:46:23.877Z,16.60
2018-08-19T02:48:56.433Z,15.43
2018-08-19T02:51:29.044Z,16.57
2018-08-19T02:54:01.633Z,15.70
2018-08-19T02:56:33.860Z,16.90
2018-08-19T02:59:06.775Z,16.63
2018-08-19T03:01:39.357Z,15.57
2018-08-19T03:04:11.722Z,16.40
2018-08-19T03:06:43.810Z,16.13
2018-08-19T03:09:16.230Z,16.30
2018-08-19T03:11:49.565Z,16.40
2018-08-19T03:14:22.357Z,16.70
2018-08-19T03:16:55.225Z,16.50
2018-08-19T03:19:27.513Z,16.03
2018-08-19T03:22:01.799Z,17.57
2018-08-19T03:24:34.997Z,17.00
2018-08-19T03:27:07.340Z,17.63
2018-08-19T03:29:54.854Z,18.00
2018-08-19T03:32:27.517Z,17.50
2018-08-19T03:35:20.276Z,17.37
2018-08-19T03:37:55.352Z,17.67
2018-08-19T03:40:28.331Z,19.23
2018-08-19T03:43:00.829Z,16.37
2018-08-19T03:45:34.901Z,18.13
2018-08-19T03:48:07.815Z,18.60
2018-08-19T03:50:40.308Z,17.77
2018-08-19T03:53:13.236Z,17.10
2018-08-19T03:55:46.160Z,17.10
2018-08-19T03:58:18.498Z,18.40
2018-08-19T04:00:50.847Z,18.57
2018-08-19T04:03:27.206Z,18.67
2018-08-19T04:06:00.922Z,17.33
2018-08-19T04:08:41.569Z,18.50
2018-08-19T04:11:13.715Z,19.50
2018-08-19T04:13:46.228Z,18.57
2018-08-19T04:16:18.816Z,18.50
2018-08-19T04:18:54.265Z,18.37
2018-08-19T04:21:27.302Z,18.43
2018-08-19T04:23:59.704Z,19.07
2018-08-19T04:26:32.494Z,19.97
2018-08-19T04:29:11.361Z,19.10
2018-08-19T04:31:43.764Z,19.20
2018-08-19T04:34:16.335Z,18.80
2018-08-19T04:36:48.900Z,19.23
2018-08-19T04:39:21.503Z,18.80
2018-08-19T04:41:53.677Z,19.43
2018-08-19T04:44:25.819Z,20.00
2018-08-19T04:46:58.723Z,18.57
2018-08-19T04:49:31.369Z,20.90
2018-08-19T04:52:04.459Z,18.30
2018-08-19T04:54:36.711Z,19.43
2018-08-19T04:57:08.917Z,17.67
2018-08-19T04:59:41.889Z,18.33
2018-08-19T05:02:14.634Z,20.93
2018-08-19T05:04:47.221Z,20.47
2018-08-19T05:07:19.402Z,19.90
2018-08-19T05:09:51.584Z,19.57
2018-08-19T05:12:24.207Z,20.07
2018-08-19T05:14:57.129Z,20.40
2018-08-19T05:17:29.729Z,20.87
2018-08-19T05:20:16.145Z,20.20
2018-08-19T05:22:48.371Z,20.80
2018-08-19T05:25:20.960Z,19.90
2018-08-19T05:28:08.697Z,20.27
2018-08-19T05:30:41.273Z,19.47
2018-08-19T05:33:14.581Z,20.50
2018-08-19T05:35:47.123Z,21.27
2018-08-19T05:38:19.424Z,20.00
2018-08-19T05:40:56.452Z,19.03
2018-08-19T05:43:29.084Z,20.13
2018-08-19T05:46:02.438Z,19.53
2018-08-19T05:48:34.818Z,20.00
2018-08-19T05:51:07.276Z,19.53
2018-08-19T05:53:43.794Z,19.73
2018-08-19T05:56:15.918Z,20.10
2018-08-19T05:58:48.509Z,18.97
2018-08-19T06:01:36.034Z,18.27
2018-08-19T06:04:08.524Z,20.93
2018-08-19T06:06:40.969Z,20.07
2018-08-19T06:09:13.188Z,18.90
2018-08-19T06:11:45.643Z,17.83
2018-08-19T06:14:17.749Z,20.17
2018-08-19T06:16:50.220Z,19.00
2018-08-19T06:19:22.567Z,20.53
2018-08-19T06:21:55.223Z,20.50
2018-08-19T06:24:27.934Z,20.27
2018-08-19T06:27:00.202Z,20.10
2018-08-19T06:29:47.045Z,21.37
2018-08-19T06:32:24.656Z,19.93
2018-08-19T06:34:57.591Z,19.80
2018-08-19T06:37:30.665Z,21.70
2018-08-19T06:40:03.273Z,20.37
2018-08-19T06:42:35.375Z,20.90
2018-08-19T06:45:08.078Z,21.60
2018-08-19T06:47:40.832Z,20.50
2018-08-19T06:50:26.174Z,20.23
2018-08-19T06:52:58.719Z,19.23
2018-08-19T06:55:31.553Z,20.90
2018-08-19T06:58:04.810Z,21.10
2018-08-19T07:00:37.689Z,21.90
2018-08-19T07:03:10.183Z,20.93
2018-08-19T07:05:43.002Z,21.03
2018-08-19T07:08:15.218Z,20.73
2018-08-19T07:10:47.780Z,21.37
2018-08-19T07:13:20.167Z,20.37
2018-08-19T07:15:52.751Z,21.80
2018-08-19T07:18:25.214Z,20.57
2018-08-19T07:20:58.120Z,21.50
2018-08-19T07:23:30.693Z,21.57
2018-08-19T07:26:03.079Z,21.30
2018-08-19T07:28:35.538Z,22.27
2018-08-19T07:31:08.763Z,22.70
2018-08-19T07:33:41.754Z,22.90
2018-08-19T07:36:14.299Z,22.00
2018-08-19T07:38:46.762Z,22.80
2018-08-19T07:41:19.218Z,22.90
2018-08-19T07:43:51.814Z,23.70
2018-08-19T07:46:24.182Z,21.73
2018-08-19T07:48:56.634Z,22.47
2018-08-19T07:51:29.015Z,24.03
2018-08-19T07:54:01.900Z,23.33
2018-08-19T07:56:34.326Z,24.43
2018-08-19T07:59:10.068Z,23.57
2018-08-19T08:01:42.654Z,22.37
2018-08-19T08:04:15.129Z,24.30
2018-08-19T08:06:47.415Z,23.13
2018-08-19T08:09:20.145Z,23.73
2018-08-19T08:11:52.796Z,21.67
2018-08-19T08:14:25.218Z,22.70
2018-08-19T08:16:57.699Z,22.77
2018-08-19T08:19:30.146Z,23.67
2018-08-19T08:22:09.245Z,21.80
2018-08-19T08:24:42.191Z,22.00
2018-08-19T08:27:14.743Z,23.50
2018-08-19T08:29:47.069Z,24.03
2018-08-19T08:32:19.487Z,23.27
2018-08-19T08:34:52.153Z,22.23
2018-08-19T08:37:24.610Z,23.27
2018-08-19T08:40:01.659Z,23.77
2018-08-19T08:42:41.284Z,23.67
2018-08-19T08:45:15.127Z,22.63
2018-08-19T08:47:47.715Z,24.20
2018-08-19T08:50:19.964Z,23.27
2018-08-19T08:52:52.590Z,22.13
2018-08-19T08:55:24.881Z,23.60
2018-08-19T08:57:57.541Z,27.03
2018-08-19T09:00:30.235Z,26.60
2018-08-19T09:03:02.789Z,23.67
2018-08-19T09:05:35.418Z,25.30
2018-08-19T09:08:07.758Z,26.10
2018-08-19T09:10:40.357Z,25.10
2018-08-19T09:13:13.050Z,26.63
2018-08-19T09:15:45.539Z,26.50
2018-08-19T09:18:17.826Z,26.53
2018-08-19T09:20:50.702Z,27.13
2018-08-19T09:23:23.010Z,28.13
2018-08-19T09:25:55.914Z,29.13
2018-08-19T09:28:28.477Z,27.83
2018-08-19T09:31:00.721Z,27.30
2018-08-19T09:33:33.116Z,30.23
2018-08-19T09:36:06.267Z,29.33
2018-08-19T09:38:38.881Z,28.73
2018-08-19T09:41:11.137Z,29.73
2018-08-19T09:43:43.738Z,28.40
2018-08-19T09:46:15.911Z,28.57
2018-08-19T09:48:48.521Z,30.70
2018-08-19T09:51:21.017Z,30.67
2018-08-19T09:53:53.410Z,31.47
2018-08-19T09:56:30.124Z,31.67
2018-08-19T09:59:05.498Z,32.70
2018-08-19T10:01:46.937Z,33.77
2018-08-19T10:04:23.843Z,34.17
2018-08-19T10:07:08.481Z,32.50
2018-08-19T10:09:41.209Z,30.67
2018-08-19T10:12:14.524Z,33.03
2018-08-19T10:14:46.743Z,31.90
2018-08-19T10:17:19.487Z,33.20
2018-08-19T10:19:51.722Z,30.00
2018-08-19T10:22:26.612Z,35.60
2018-08-19T10:24:59.254Z,33.53
2018-08-19T10:27:32.078Z,33.30
2018-08-19T10:30:04.270Z,32.53
2018-08-19T10:32:36.923Z,34.33
2018-08-19T10:35:14.040Z,33.60
2018-08-19T10:37:46.486Z,34.00
2018-08-19T10:40:18.767Z,32.63
2018-08-19T10:42:51.516Z,34.70
2018-08-19T10:45:25.016Z,34.20
2018-08-19T10:47:57.177Z,37.63
2018-08-19T10:50:31.136Z,35.37
2018-08-19T10:53:03.657Z,34.37
2018-08-19T10:55:36.072Z,34.80
2018-08-19T10:58:08.408Z,35.97
2018-08-19T11:00:40.900Z,36.07
2018-08-19T11:03:21.709Z,37.53
2018-08-19T11:05:56.332Z,39.33
2018-08-19T11:08:28.904Z,36.80
2018-08-19T11:11:03.493Z,36.97
2018-08-19T11:13:35.944Z,37.43
2018-08-19T11:16:08.788Z,36.00
2018-08-19T11:18:44.252Z,36.23
2018-08-19T11:21:25.071Z,37.60
2018-08-19T11:23:58.585Z,39.13
2018-08-19T11:26:30.844Z,38.03
2018-08-19T11:29:04.946Z,36.63
2018-08-19T11:31:37.896Z,38.97
2018-08-19T11:34:10.725Z,40.27
2018-08-19T11:36:45.405Z,38.57
2018-08-19T11:39:18.597Z,37.63
2018-08-19T11:41:51.301Z,39.20
2018-08-19T11:44:23.638Z,41.13
2018-08-19T11:46:56.023Z,38.50
2018-08-19T11:49:28.710Z,40.30
2018-08-19T11:52:03.590Z,43.30
2018-08-19T11:54:36.396Z,42.33
2018-08-19T11:57:10.633Z,41.60
2018-08-19T11:59:44.211Z,40.17
2018-08-19T12:02:21.592Z,43.47
2018-08-19T12:04:53.681Z,45.10
2018-08-19T12:07:25.990Z,42.90
2018-08-19T12:10:01.481Z,42.40
2018-08-19T12:12:47.007Z,41.03
2018-08-19T12:15:19.376Z,43.97
2018-08-19T12:17:51.837Z,46.23
2018-08-19T12:20:28.790Z,46.43
2018-08-19T12:23:01.732Z,43.77
2018-08-19T12:25:34.072Z,48.47
2018-08-19T12:28:06.222Z,48.33
2018-08-19T12:30:38.722Z,47.53
2018-08-19T12:33:27.265Z,48.33
2018-08-19T12:35:59.680Z,49.30
2018-08-19T12:38:31.870Z,49.20
2018-08-19T12:41:06.258Z,51.13
2018-08-19T12:43:39.458Z,52.07
2018-08-19T12:46:11.925Z,48.00
2018-08-19T12:48:44.425Z,49.77
2018-08-19T12:51:18.064Z,54.30
2018-08-19T12:53:50.438Z,56.53
2018-08-19T12:56:22.749Z,56.80
2018-08-19T12:58:54.998Z,54.87
2018-08-19T13:01:27.383Z,53.77
2018-08-19T13:03:59.649Z,54.40
2018-08-19T13:06:31.727Z,57.70
2018-08-19T13:09:04.938Z,59.10
2018-08-19T13:11:37.922Z,62.67
2018-08-19T13:14:11.022Z,56.93
2018-08-19T13:16:43.436Z,63.47
2018-08-19T13:19:16.067Z,62.23
2018-08-19T13:21:48.441Z,57.40
2018-08-19T13:24:25.664Z,60.20
2018-08-19T13:26:59.227Z,62.37
2018-08-19T13:29:36.806Z,57.33
2018-08-19T13:32:09.265Z,61.00
2018-08-19T13:34:41.819Z,63.63
2018-08-19T13:37:14.016Z,61.87
2018-08-19T13:39:46.325Z,62.33
2018-08-19T13:42:18.854Z,64.23
2018-08-19T13:44:51.923Z,61.03
2018-08-19T13:47:24.040Z,60.43
2018-08-19T13:49:57.671Z,61.80
2018-08-19T13:52:30.271Z,61.50
2018-08-19T13:55:04.524Z,64.07
2018-08-19T13:57:36.983Z,60.17
2018-08-19T14:00:14.821Z,65.40
2018-08-19T14:02:47.988Z,67.87
2018-08-19T14:05:20.200Z,66.00
2018-08-19T14:07:52.646Z,69.00
2018-08-19T14:10:25.329Z,67.57
2018-08-19T14:12:58.075Z,71.50
2018-08-19T14:15:30.633Z,64.30
2018-08-19T14:18:02.789Z,69.90
2018-08-19T14:20:35.108Z,66.70
2018-08-19T14:23:07.496Z,78.67
2018-08-19T14:25:40.303Z,80.57
2018-08-19T14:28:12.846Z,75.47
2018-08-19T14:30:45.423Z,81.97
2018-08-19T14:33:18.007Z,79.37
2018-08-19T14:35:50.518Z,72.80
2018-08-19T14:38:22.792Z,77.77
2018-08-19T14:40:55.570Z,77.70
2018-08-19T14:43:28.216Z,78.17
2018-08-19T14:46:00.669Z,79.23
2018-08-19T14:48:33.078Z,79.27
2018-08-19T14:51:05.756Z,79.23
2018-08-19T14:53:38.133Z,80.20
2018-08-19T14:56:17.772Z,78.03
2018-08-19T14:58:49.966Z,81.63
2018-08-19T15:01:22.618Z,74.20
2018-08-19T15:03:59.683Z,75.50
2018-08-19T15:06:31.953Z,75.00
2018-08-19T15:09:04.781Z,71.60
2018-08-19T15:11:37.380Z,72.17
2018-08-19T15:14:17.438Z,70.20
2018-08-19T15:16:52.518Z,77.07
2018-08-19T15:19:24.939Z,70.07
2018-08-19T15:21:57.831Z,74.57
2018-08-19T15:24:30.213Z,69.50
2018-08-19T15:27:02.976Z,64.43
2018-08-19T15:29:35.356Z,68.13
2018-08-19T15:32:08.074Z,66.73
2018-08-19T15:34:40.725Z,61.53
2018-08-19T15:37:13.279Z,64.87
2018-08-19T15:39:45.402Z,61.47
2018-08-19T15:42:18.701Z,63.40
2018-08-19T15:44:51.333Z,62.03
2018-08-19T15:47:23.716Z,65.03
2018-08-19T15:50:06.166Z,69.30
2018-08-19T15:52:38.443Z,63.60
2018-08-19T15:55:11.561Z,66.43
2018-08-19T15:57:43.816Z,64.13
2018-08-19T16:00:16.474Z,57.43
2018-08-19T16:02:49.139Z,63.40
2018-08-19T16:05:21.522Z,61.87
2018-08-19T16:07:53.639Z,61.47
2018-08-19T16:10:26.065Z,60.80
2018-08-19T16:12:58.718Z,61.17
2018-08-19T16:15:31.258Z,60.43
2018-08-19T16:18:03.534Z,60.80
2018-08-19T16:20:36.049Z,59.67
2018-08-19T16:23:08.701Z,62.63
2018-08-19T16:25:41.711Z,61.37
2018-08-19T16:28:14.467Z,55.20
2018-08-19T16:30:46.910Z,57.53
2018-08-19T16:33:19.074Z,56.90
2018-08-19T16:35:51.325Z,62.37
2018-08-19T16:38:23.784Z,58.20
2018-08-19T16:40:56.377Z,53.43
2018-08-19T16:43:29.421Z,56.07
2018-08-19T16:46:01.728Z,54.77
2018-08-19T16:48:34.397Z,56.63
2018-08-19T16:51:07.199Z,53.53
2018-08-19T16:53:39.621Z,52.40
2018-08-19T16:56:12.260Z,54.50
2018-08-19T16:58:45.035Z,58.13
2018-08-19T17:01:17.981Z,56.20
2018-08-19T17:03:50.245Z,57.27
2018-08-19T17:06:22.742Z,53.10
2018-08-19T17:08:55.412Z,51.03
2018-08-19T17:11:27.817Z,53.57
2018-08-19T17:14:00.564Z,56.37
2018-08-19T17:16:32.644Z,49.70
2018-08-19T17:19:05.081Z,50.60
2018-08-19T17:21:37.980Z,51.87
2018-08-19T17:24:10.943Z,52.73
2018-08-19T17:26:43.669Z,50.37
2018-08-19T17:29:20.713Z,52.70
2018-08-19T17:31:53.308Z,58.23
2018-08-19T17:34:25.821Z,56.20
2018-08-19T17:36:57.972Z,51.23
2018-08-19T17:39:32.948Z,53.70
2018-08-19T17:42:05.603Z,48.17
2018-08-19T17:44:38.679Z,55.13
2018-08-19T17:47:11.365Z,51.27
2018-08-19T17:49:43.841Z,54.37
2018-08-19T17:52:16.261Z,55.33
2018-08-19T17:54:48.874Z,49.97
2018-08-19T17:57:22.077Z,48.50
2018-08-19T17:59:55.157Z,46.50
2018-08-19T18:02:28.776Z,42.17
2018-08-19T18:05:01.706Z,43.60
2018-08-19T18:07:33.574Z,43.20
2018-08-19T18:10:08.799Z,43.23
2018-08-19T18:12:41.079Z,42.07
2018-08-19T18:15:14.370Z,38.90
2018-08-19T18:17:57.843Z,37.17
2018-08-19T18:20:38.071Z,37.67
2018-08-19T18:23:16.413Z,41.87
2018-08-19T18:25:52.399Z,39.20
2018-08-19T18:28:28.391Z,36.60
2018-08-19T18:33:55.429Z,38.67
2018-08-19T18:36:29.022Z,39.83
2018-08-19T18:39:01.880Z,38.77
2018-08-19T18:41:35.339Z,37.50
2018-08-19T18:44:08.732Z,38.37
2018-08-19T18:46:41.536Z,38.20
2018-08-19T18:49:14.764Z,36.23
2018-08-19T18:51:49.803Z,35.07
2018-08-19T18:54:32.858Z,37.40
2018-08-19T18:57:09.949Z,32.50
2018-08-19T18:59:45.459Z,35.23
2018-08-19T19:02:18.497Z,35.40
2018-08-19T19:04:50.757Z,30.93
2018-08-19T19:07:22.916Z,30.83
2018-08-19T19:09:54.788Z,34.73
2018-08-19T19:12:26.831Z,30.77
2018-08-19T19:14:58.710Z,27.23
2018-08-19T19:17:31.440Z,26.80
2018-08-19T19:20:04.505Z,29.70
2018-08-19T19:22:37.319Z,27.93
2018-08-19T19:25:09.465Z,28.63
2018-08-19T19:27:42.455Z,28.73
2018-08-19T19:30:14.808Z,30.33
2018-08-19T19:32:47.033Z,30.33
2018-08-19T19:35:21.098Z,30.80
2018-08-19T19:37:54.238Z,29.70
2018-08-19T19:40:26.944Z,29.23
2018-08-19T19:42:59.887Z,29.63
2018-08-19T19:45:35.964Z,30.30
2018-08-19T19:48:08.264Z,29.87
2018-08-19T19:50:40.952Z,29.10
2018-08-19T19:53:13.505Z,29.90
2018-08-19T19:55:46.092Z,27.43
2018-08-19T19:58:18.506Z,28.87
2018-08-19T20:00:57.260Z,28.13
2018-08-19T20:03:29.259Z,29.07
2018-08-19T20:06:02.291Z,28.93
2018-08-19T20:08:34.483Z,28.33
2018-08-19T20:11:08.973Z,30.83
2018-08-19T20:13:41.534Z,30.67
2018-08-19T20:16:13.703Z,27.90
2018-08-19T20:18:45.840Z,28.00
2018-08-19T20:21:22.375Z,27.53
2018-08-19T20:23:55.512Z,27.20
2018-08-19T20:26:28.112Z,25.90
2018-08-19T20:29:02.843Z,25.10
2018-08-19T20:31:35.543Z,24.20
2018-08-19T20:34:08.052Z,23.93
2018-08-19T20:36:40.352Z,24.87
2018-08-19T20:39:12.575Z,25.47
2018-08-19T20:41:45.290Z,27.53
2018-08-19T20:44:17.122Z,25.07
2018-08-19T20:46:54.561Z,26.10
2018-08-19T20:49:27.345Z,27.33
2018-08-19T20:51:59.740Z,25.60
2018-08-19T20:54:31.886Z,25.37
2018-08-19T20:57:04.280Z,25.70
2018-08-19T20:59:36.922Z,25.70
2018-08-19T21:02:10.267Z,26.40
2018-08-19T21:04:42.842Z,29.27
2018-08-19T21:07:15.391Z,27.57
2018-08-19T21:09:47.288Z,27.30
2018-08-19T21:12:19.200Z,30.17
2018-08-19T21:14:51.136Z,30.60
2018-08-19T21:17:23.449Z,30.60
2018-08-19T21:19:55.985Z,30.60
2018-08-19T21:22:28.552Z,30.97
2018-08-19T21:25:00.739Z,29.53
2018-08-19T21:27:32.833Z,31.87
2018-08-19T21:30:05.311Z,32.17
2018-08-19T21:32:38.132Z,30.33
2018-08-19T21:35:10.647Z,31.70
2018-08-19T21:37:42.474Z,32.30
2018-08-19T21:40:15.550Z,31.40
2018-08-19T21:42:54.301Z,35.07
2018-08-19T21:45:26.974Z,34.33
2018-08-19T21:47:59.476Z,37.83
2018-08-19T21:50:32.185Z,40.87
2018-08-19T21:53:06.417Z,41.30
2018-08-19T21:55:47.885Z,41.23
2018-08-19T21:58:20.228Z,38.90
2018-08-19T22:01:03.399Z,40.33
2018-08-19T22:03:41.595Z,38.27
2018-08-19T22:06:13.942Z,38.23
2018-08-19T22:08:46.427Z,38.03
2018-08-19T22:11:18.829Z,37.80
2018-08-19T22:13:51.261Z,39.23
2018-08-19T22:16:25.074Z,39.40
2018-08-19T22:18:57.892Z,36.43
2018-08-19T22:21:30.256Z,39.47
2018-08-19T22:24:02.738Z,39.50
2018-08-19T22:26:35.237Z,36.30
2018-08-19T22:29:24.142Z,36.07
2018-08-19T22:31:56.526Z,37.23
2018-08-19T22:34:29.359Z,35.37
2018-08-19T22:37:02.106Z,35.73
2018-08-19T22:39:34.613Z,36.97
2018-08-19T22:42:06.903Z,36.53
2018-08-19T22:44:39.558Z,34.90
2018-08-19T22:47:11.823Z,35.80
2018-08-19T22:49:44.472Z,36.80
2018-08-19T22:52:22.944Z,38.93
2018-08-19T22:54:57.392Z,38.30
2018-08-19T22:57:29.750Z,38.43
2018-08-19T23:00:02.138Z,37.23
2018-08-19T23:02:34.796Z,40.43
2018-08-19T23:05:07.478Z,39.67
2018-08-19T23:07:40.278Z,39.87
2018-08-19T23:10:13.119Z,41.13
2018-08-19T23:12:46.073Z,40.43
2018-08-19T23:15:27.663Z,40.50
2018-08-19T23:18:00.149Z,43.30
2018-08-19T23:20:32.536Z,42.70
2018-08-19T23:23:05.136Z,44.47
2018-08-19T23:25:37.488Z,41.53
2018-08-19T23:28:09.800Z,42.00
2018-08-19T23:30:42.172Z,42.37
2018-08-19T23:33:14.578Z,40.73
2018-08-19T23:35:47.378Z,40.87
2018-08-19T23:38:19.846Z,41.30
2018-08-19T23:40:52.562Z,42.83
2018-08-19T23:43:25.120Z,42.07
2018-08-19T23:45:57.765Z,42.37
2018-08-19T23:48:29.652Z,43.47
2018-08-19T23:51:01.665Z,42.97
2018-08-19T23:53:34.573Z,44.70
2018-08-19T23:56:07.167Z,48.10
2018-08-19T23:58:39.896Z,45.20
